Time;durP1;ratioP1;P1;durP2;ratioP2;P2;SDS_P1;SDS_P2;PMS_P1;PMS_P2;Temp;Humidity;BMP_temperature;BMP_pressure;BME280_temperature;BME280_humidity;BME280_pressure;Samples;Min_cycle;Max_cycle;Signal;HPM_P1;HPM_P2
2022/03/24 00:01:40;;;;;;;22.67;10.27;;;;;;;6.30;39.10;100505.22;5048935;28;20075;-49
2022/03/24 00:04:06;;;;;;;20.25;10.80;;;;;;;6.20;39.66;100505.31;5048989;28;20036;-48
2022/03/24 00:06:32;;;;;;;24.80;13.15;;;;;;;6.38;39.40;100502.63;5049339;28;20053;-49
2022/03/24 00:08:58;;;;;;;31.70;13.82;;;;;;;6.34;39.48;100489.88;5049391;28;20062;-51
2022/03/24 00:11:23;;;;;;;38.17;17.48;;;;;;;6.34;39.59;100496.00;5049509;28;20025;-51
2022/03/24 00:13:48;;;;;;;27.88;16.35;;;;;;;6.42;39.86;100488.09;5049172;28;20033;-49
2022/03/24 00:16:19;;;;;;;35.03;18.50;;;;;;;6.27;40.41;100481.75;5048763;28;20039;-49
2022/03/24 00:18:45;;;;;;;41.70;21.67;;;;;;;6.14;40.15;100474.25;5048495;28;20579;-48
2022/03/24 00:21:11;;;;;;;42.30;21.02;;;;;;;6.09;40.91;100476.50;5048816;28;20025;-47
2022/03/24 00:23:36;;;;;;;40.42;21.00;;;;;;;5.83;41.22;100474.69;5048740;28;20120;-49
2022/03/24 00:26:02;;;;;;;44.20;23.45;;;;;;;5.83;41.33;100472.03;5048452;28;20040;-49
2022/03/24 00:28:27;;;;;;;48.20;24.58;;;;;;;5.91;41.24;100467.81;5049354;28;20033;-49
2022/03/24 00:30:53;;;;;;;51.35;24.95;;;;;;;5.65;41.40;100472.09;5049111;28;20431;-49
2022/03/24 00:33:18;;;;;;;58.25;30.08;;;;;;;5.63;42.04;100470.56;5049166;28;20029;-48
2022/03/24 00:35:44;;;;;;;61.78;29.85;;;;;;;5.37;42.38;100462.59;5048667;28;20676;-48
2022/03/24 00:38:09;;;;;;;58.17;30.33;;;;;;;5.47;42.19;100458.91;5048476;28;20688;-48
2022/03/24 00:40:35;;;;;;;55.45;28.13;;;;;;;5.23;42.84;100454.22;5048383;28;20028;-49
2022/03/24 00:43:01;;;;;;;51.65;28.88;;;;;;;5.20;42.96;100459.81;5048321;28;20099;-48
2022/03/24 00:45:27;;;;;;;58.55;30.55;;;;;;;5.26;42.71;100453.94;5049113;28;20029;-49
2022/03/24 00:47:53;;;;;;;57.47;29.15;;;;;;;5.16;43.21;100454.97;5049412;28;20457;-51
2022/03/24 00:50:18;;;;;;;53.47;27.80;;;;;;;5.16;43.26;100454.97;5049377;28;20086;-48
2022/03/24 00:52:45;;;;;;;58.25;30.70;;;;;;;5.17;43.37;100440.81;5048933;28;20017;-48
2022/03/24 00:55:12;;;;;;;52.63;29.17;;;;;;;5.00;43.44;100438.03;5048862;28;20461;-48
2022/03/24 00:57:42;;;;;;;58.13;29.70;;;;;;;4.93;43.78;100436.13;5048191;28;20097;-48
2022/03/24 01:00:09;;;;;;;64.43;31.17;;;;;;;4.61;44.67;100435.66;5048150;28;20119;-48
2022/03/24 01:02:37;;;;;;;51.53;28.15;;;;;;;4.53;45.36;100432.91;5048435;28;20032;-49
2022/03/24 01:05:07;;;;;;;54.30;26.77;;;;;;;4.43;45.78;100426.88;5048597;28;20115;-47
2022/03/24 01:07:36;;;;;;;56.42;27.48;;;;;;;4.55;45.96;100425.72;5049000;28;20075;-50
2022/03/24 01:10:03;;;;;;;50.40;25.48;;;;;;;5.28;44.06;100422.94;5049134;28;20025;-48
2022/03/24 01:12:29;;;;;;;53.20;25.55;;;;;;;5.37;43.74;100425.63;5048650;28;20082;-50
2022/03/24 01:14:58;;;;;;;58.13;31.35;;;;;;;4.86;44.48;100434.09;5048004;28;20024;-51
2022/03/24 01:17:26;;;;;;;74.95;36.72;;;;;;;4.87;44.52;100427.88;5047337;28;20025;-48
2022/03/24 01:19:53;;;;;;;67.80;34.47;;;;;;;4.61;45.43;100417.19;5047374;28;20036;-48
2022/03/24 01:22:19;;;;;;;71.57;34.25;;;;;;;4.35;46.33;100410.97;5047283;28;20028;-48
2022/03/24 01:24:45;;;;;;;57.38;30.35;;;;;;;4.38;46.56;100410.66;5047658;28;20068;-49
2022/03/24 01:27:11;;;;;;;59.05;26.98;;;;;;;5.13;44.84;100406.00;5047667;28;20035;-48
2022/03/24 01:29:37;;;;;;;32.47;16.80;;;;;;;4.81;45.37;100407.34;5047914;28;20036;-48
2022/03/24 01:32:03;;;;;;;33.53;17.08;;;;;;;4.44;46.45;100408.28;5047627;28;20036;-48
2022/03/24 01:34:29;;;;;;;44.05;20.00;;;;;;;3.98;47.44;100402.13;5047543;28;20037;-48
2022/03/24 01:36:55;;;;;;;37.83;19.17;;;;;;;3.75;48.11;100401.66;5047358;28;20405;-48
2022/03/24 01:39:21;;;;;;;34.85;17.27;;;;;;;3.89;48.32;100401.19;5050691;28;20066;-49
2022/03/24 01:41:47;;;;;;;31.00;14.95;;;;;;;4.67;46.58;100395.50;5051373;28;20370;-48
2022/03/24 01:44:16;;;;;;;25.23;12.18;;;;;;;4.68;46.57;100397.19;5051297;28;20611;-50
2022/03/24 01:46:57;;;;;;;29.55;14.57;;;;;;;4.70;46.42;100395.22;5051741;28;20025;-48
2022/03/24 01:49:25;;;;;;;26.27;12.25;;;;;;;4.64;47.01;100397.59;5053033;28;20021;-49
2022/03/24 01:51:50;;;;;;;48.50;21.67;;;;;;;4.24;47.54;100394.38;5052985;28;20041;-48
2022/03/24 01:54:16;;;;;;;38.33;18.90;;;;;;;4.01;48.26;100401.00;5053069;28;20078;-49
2022/03/24 01:56:43;;;;;;;35.03;14.43;;;;;;;4.00;48.43;100392.28;5052172;28;20036;-48
2022/03/24 01:59:13;;;;;;;35.92;18.83;;;;;;;3.94;48.90;100394.63;5051892;28;20027;-50
2022/03/24 02:01:38;;;;;;;39.17;19.88;;;;;;;3.79;49.00;100392.50;5051943;28;20104;-47
2022/03/24 02:04:04;;;;;;;34.03;16.95;;;;;;;3.84;49.40;100389.41;5051497;28;20684;-51
2022/03/24 02:06:31;;;;;;;35.40;18.58;;;;;;;3.70;49.83;100398.59;5051926;28;20053;-51
2022/03/24 02:08:57;;;;;;;38.00;20.45;;;;;;;3.76;49.63;100399.84;5052570;28;20036;-49
2022/03/24 02:11:23;;;;;;;40.70;20.85;;;;;;;3.46;50.42;100404.34;5052002;28;20037;-48
2022/03/24 02:13:48;;;;;;;53.45;25.85;;;;;;;3.45;50.23;100402.69;5051872;28;20094;-48
2022/03/24 02:16:15;;;;;;;53.95;26.92;;;;;;;3.62;49.06;100370.38;5051564;28;20032;-48
2022/03/24 02:18:41;;;;;;;75.70;33.28;;;;;;;3.98;47.81;100399.50;5051581;28;20019;-50
2022/03/24 02:21:06;;;;;;;62.00;30.55;;;;;;;3.53;48.07;100397.53;5051412;28;20028;-48
2022/03/24 02:23:32;;;;;;;56.42;28.33;;;;;;;3.21;49.17;100389.97;5051727;28;20453;-48
2022/03/24 02:25:58;;;;;;;61.60;29.23;;;;;;;3.28;49.41;100393.69;5052041;28;20043;-49
2022/03/24 02:28:23;;;;;;;63.05;31.23;;;;;;;3.24;50.09;100389.69;5052241;28;20079;-50
2022/03/24 02:30:50;;;;;;;60.60;30.00;;;;;;;3.24;50.24;100390.53;5052099;28;20083;-49
2022/03/24 02:33:21;;;;;;;61.65;28.65;;;;;;;3.06;50.88;100392.19;5052058;28;20578;-48
2022/03/24 02:35:47;;;;;;;73.43;28.38;;;;;;;3.04;50.92;100386.22;5051333;28;20107;-49
2022/03/24 02:38:13;;;;;;;69.43;28.73;;;;;;;3.65;49.47;100388.50;5051563;28;20025;-48
2022/03/24 02:40:39;;;;;;;54.13;24.58;;;;;;;3.67;48.66;100380.44;5051599;28;20033;-48
2022/03/24 02:43:05;;;;;;;45.13;20.60;;;;;;;3.39;49.17;100367.25;5051080;28;20036;-48
2022/03/24 02:45:30;;;;;;;45.92;22.15;;;;;;;3.14;49.90;100379.16;5051735;28;20469;-49
2022/03/24 02:47:56;;;;;;;41.60;20.95;;;;;;;3.16;50.75;100386.91;5052002;28;20519;-50
2022/03/24 02:50:22;;;;;;;36.45;17.92;;;;;;;3.00;50.58;100379.59;5050969;28;20518;-50
2022/03/24 02:52:48;;;;;;;33.45;15.23;;;;;;;3.23;49.28;100378.31;5051525;28;20477;-51
2022/03/24 02:55:13;;;;;;;36.25;15.80;;;;;;;2.63;50.54;100359.25;5051404;28;20028;-51
2022/03/24 02:57:39;;;;;;;22.27;11.25;;;;;;;2.50;50.60;100380.53;5050729;28;20087;-49
2022/03/24 03:00:06;;;;;;;26.63;11.80;;;;;;;2.57;50.73;100379.03;5050885;28;20070;-51
2022/03/24 03:02:32;;;;;;;25.33;12.30;;;;;;;2.51;51.14;100383.03;5050930;28;20511;-50
2022/03/24 03:04:58;;;;;;;29.98;13.30;;;;;;;2.48;50.92;100372.78;5050821;28;20033;-48
2022/03/24 03:07:23;;;;;;;24.73;11.50;;;;;;;2.42;51.75;100375.94;5051401;28;20092;-50
2022/03/24 03:09:49;;;;;;;26.38;12.60;;;;;;;2.66;51.59;100375.56;5051064;28;20075;-48
2022/03/24 03:12:16;;;;;;;30.23;14.15;;;;;;;2.72;51.82;100368.91;5050812;28;20024;-49
2022/03/24 03:14:42;;;;;;;28.60;14.18;;;;;;;2.67;51.83;100350.13;5050837;28;20029;-48
2022/03/24 03:17:08;;;;;;;31.70;13.65;;;;;;;2.91;52.24;100374.22;5050871;28;20449;-50
2022/03/24 03:19:34;;;;;;;29.48;14.38;;;;;;;3.01;51.19;100361.06;5050635;28;20386;-48
2022/03/24 03:22:00;;;;;;;27.38;13.45;;;;;;;3.01;51.17;100362.84;5050694;28;20035;-48
2022/03/24 03:24:26;;;;;;;30.85;13.80;;;;;;;3.04;51.39;100363.38;5050801;28;20104;-51
2022/03/24 03:26:53;;;;;;;30.50;13.50;;;;;;;2.93;51.45;100355.63;5050969;28;20029;-49
2022/03/24 03:29:19;;;;;;;30.55;12.70;;;;;;;3.00;51.44;100364.63;5051006;28;20033;-49
2022/03/24 03:31:45;;;;;;;28.15;12.93;;;;;;;2.76;51.32;100351.94;5050625;28;20086;-47
2022/03/24 03:34:11;;;;;;;27.13;12.68;;;;;;;2.84;51.41;100359.94;5050395;28;20029;-47
2022/03/24 03:36:38;;;;;;;24.27;11.70;;;;;;;2.94;51.71;100355.50;5049662;28;20029;-48
2022/03/24 03:39:09;;;;;;;29.90;11.32;;;;;;;2.86;51.88;100355.38;5050224;28;20020;-48
2022/03/24 03:41:37;;;;;;;31.00;12.88;;;;;;;2.86;51.21;100354.56;5050187;28;20032;-50
2022/03/24 03:44:03;;;;;;;27.70;11.43;;;;;;;2.82;51.60;100363.66;5050270;28;20167;-50
2022/03/24 03:46:30;;;;;;;28.15;11.68;;;;;;;2.49;52.88;100357.84;5050184;28;20029;-50
2022/03/24 03:48:55;;;;;;;26.65;11.95;;;;;;;2.47;52.72;100357.97;5050132;28;20032;-50
2022/03/24 03:51:21;;;;;;;27.80;11.38;;;;;;;2.63;51.94;100359.25;5050742;28;20028;-47
2022/03/24 03:53:47;;;;;;;24.40;11.75;;;;;;;2.41;52.88;100358.50;5050624;28;20182;-48
2022/03/24 03:56:12;;;;;;;22.73;10.25;;;;;;;2.56;52.86;100356.34;5050298;28;20039;-48
2022/03/24 03:58:39;;;;;;;19.67;9.25;;;;;;;2.62;52.91;100350.53;5050758;28;20017;-53
2022/03/24 04:01:05;;;;;;;24.25;10.98;;;;;;;2.71;52.57;100348.88;5049577;28;20143;-50
2022/03/24 04:03:32;;;;;;;31.88;11.52;;;;;;;2.28;53.64;100311.47;5050573;28;20039;-50
2022/03/24 04:06:07;;;;;;;22.65;10.43;;;;;;;2.47;53.27;100342.19;5049728;28;20406;-54
2022/03/24 04:08:33;;;;;;;18.50;8.73;;;;;;;2.69;52.94;100349.00;5050449;28;20037;-52
2022/03/24 04:11:00;;;;;;;22.23;10.13;;;;;;;2.98;52.33;100349.97;5050448;28;20025;-49
2022/03/24 04:13:26;;;;;;;24.20;9.73;;;;;;;2.77;52.55;100344.88;5050090;28;20060;-50
2022/03/24 04:15:53;;;;;;;22.00;10.82;;;;;;;2.86;52.48;100344.03;5050027;28;20109;-50
2022/03/24 04:18:19;;;;;;;22.08;9.77;;;;;;;2.78;52.87;100344.75;5050128;28;20025;-48
2022/03/24 04:20:45;;;;;;;28.20;10.23;;;;;;;2.92;52.58;100340.84;5050064;28;20463;-51
2022/03/24 04:23:11;;;;;;;28.45;11.25;;;;;;;3.67;50.52;100338.34;5049688;28;20056;-47
2022/03/24 04:25:37;;;;;;;23.90;10.20;;;;;;;3.34;51.58;100337.88;5049839;28;20111;-50
2022/03/24 04:28:04;;;;;;;21.98;9.73;;;;;;;2.88;52.53;100337.66;5050214;28;20103;-49
2022/03/24 04:30:31;;;;;;;27.83;10.02;;;;;;;2.47;54.29;100341.38;5049672;28;20496;-48
2022/03/24 04:32:57;;;;;;;27.05;10.55;;;;;;;2.61;54.26;100335.75;5049180;28;20026;-48
2022/03/24 04:35:23;;;;;;;22.90;10.38;;;;;;;3.56;51.52;100333.25;5049596;28;20397;-50
2022/03/24 04:37:49;;;;;;;19.05;9.68;;;;;;;3.57;51.03;100327.84;5048972;28;20029;-49
2022/03/24 04:40:17;;;;;;;20.38;9.40;;;;;;;3.38;51.56;100334.00;5048930;28;20396;-48
2022/03/24 04:42:45;;;;;;;19.40;8.70;;;;;;;3.45;51.80;100329.00;5049041;28;20043;-48
2022/03/24 04:45:10;;;;;;;25.40;8.88;;;;;;;3.45;51.46;100329.81;5048735;28;20035;-52
2022/03/24 04:47:37;;;;;;;19.92;9.85;;;;;;;3.50;51.42;100332.88;5049804;28;20021;-49
2022/03/24 04:50:03;;;;;;;29.88;10.38;;;;;;;3.40;52.05;100329.41;5049445;28;20025;-49
2022/03/24 04:52:28;;;;;;;24.25;10.05;;;;;;;4.22;50.59;100330.44;5049572;28;20048;-50
2022/03/24 04:54:54;;;;;;;25.63;9.70;;;;;;;4.52;48.61;100328.47;5049608;28;20459;-49
2022/03/24 04:57:19;;;;;;;20.00;9.18;;;;;;;4.32;49.26;100335.66;5049266;28;20600;-48
2022/03/24 04:59:45;;;;;;;24.25;9.05;;;;;;;4.48;49.05;100343.75;5049340;28;20538;-51
2022/03/24 05:02:15;;;;;;;34.00;11.07;;;;;;;4.66;49.25;100346.41;5049285;28;20032;-48
2022/03/24 05:04:42;;;;;;;24.38;10.13;;;;;;;4.69;49.24;100346.09;5049072;28;20033;-50
2022/03/24 05:07:08;;;;;;;22.55;10.02;;;;;;;5.66;47.25;100327.66;5049085;28;20076;-48
2022/03/24 05:09:33;;;;;;;34.13;11.00;;;;;;;5.63;47.35;100338.53;5049203;28;20033;-49
2022/03/24 05:11:59;;;;;;;23.60;11.15;;;;;;;5.70;47.12;100339.56;5048071;28;20110;-48
2022/03/24 05:14:24;;;;;;;22.25;9.75;;;;;;;5.77;46.20;100332.69;5053115;28;20449;-48
2022/03/24 05:16:50;;;;;;;30.80;11.15;;;;;;;5.82;46.99;100335.66;5052962;28;20025;-50
2022/03/24 05:19:15;;;;;;;28.73;11.48;;;;;;;6.10;46.16;100330.19;5052972;28;20013;-48
2022/03/24 05:21:40;;;;;;;23.35;10.82;;;;;;;6.82;44.36;100335.81;5052992;28;20449;-49
2022/03/24 05:24:06;;;;;;;29.73;11.55;;;;;;;7.54;42.68;100335.09;5052404;28;20025;-49
2022/03/24 05:26:31;;;;;;;22.67;11.05;;;;;;;7.44;45.88;100337.06;5052721;28;20048;-50
2022/03/24 05:28:57;;;;;;;25.08;11.30;;;;;;;7.32;43.18;100339.25;5052032;28;20025;-48
2022/03/24 05:31:23;;;;;;;25.10;10.32;;;;;;;7.47;42.40;100330.63;5052785;28;20103;-48
2022/03/24 05:33:48;;;;;;;25.35;10.85;;;;;;;7.65;41.77;100323.28;5052822;28;20035;-48
2022/03/24 05:36:15;;;;;;;23.90;10.27;;;;;;;8.05;41.13;100323.31;5052650;28;20382;-51
2022/03/24 05:38:41;;;;;;;25.23;10.02;;;;;;;8.09;41.58;100304.25;5052390;28;20433;-49
2022/03/24 05:41:08;;;;;;;26.70;9.68;;;;;;;8.21;40.83;100315.28;5051894;28;20035;-52
2022/03/24 05:43:34;;;;;;;34.30;15.20;;;;;;;8.44;40.38;100322.50;5051976;28;20024;-50
2022/03/24 05:45:59;;;;;;;25.95;10.80;;;;;;;8.77;41.69;100328.38;5051419;28;20390;-51
2022/03/24 05:48:25;;;;;;;27.50;11.75;;;;;;;9.22;40.65;100324.03;5052191;28;20040;-48
2022/03/24 05:50:50;;;;;;;29.20;10.15;;;;;;;9.70;41.37;100324.53;5052279;28;20461;-49
2022/03/24 05:53:16;;;;;;;16.98;8.40;;;;;;;10.48;40.65;100324.06;5052381;28;20029;-52
2022/03/24 05:55:42;;;;;;;23.00;7.40;;;;;;;11.48;39.48;100324.91;5051817;28;20478;-48
2022/03/24 05:58:07;;;;;;;11.45;6.10;;;;;;;11.77;35.60;100326.53;5052019;28;20076;-50
2022/03/24 06:00:38;;;;;;;10.63;5.82;;;;;;;12.46;36.08;100320.25;5052006;28;20029;-48
2022/03/24 06:03:07;;;;;;;9.23;5.45;;;;;;;13.38;35.39;100325.06;5051660;28;20526;-50
2022/03/24 06:05:33;;;;;;;12.60;5.68;;;;;;;13.08;34.26;100330.84;5051307;28;20127;-47
2022/03/24 06:08:00;;;;;;;10.98;5.10;;;;;;;13.37;32.30;100326.94;5052113;28;20124;-51
2022/03/24 06:10:26;;;;;;;17.55;5.30;;;;;;;13.86;31.07;100332.81;5052065;28;20663;-48
2022/03/24 06:12:53;;;;;;;9.60;5.03;;;;;;;13.14;31.34;100321.16;5052199;28;20384;-51
2022/03/24 06:15:19;;;;;;;15.27;5.60;;;;;;;13.65;31.29;100323.16;5048990;28;20051;-48
2022/03/24 06:17:44;;;;;;;13.25;6.00;;;;;;;14.29;32.03;100313.47;5037712;28;20625;-52
2022/03/24 06:20:11;;;;;;;17.17;6.00;;;;;;;14.11;30.34;100324.03;5031761;28;20032;-51
2022/03/24 06:22:48;;;;;;;11.40;5.90;;;;;;;14.40;29.81;100310.09;5031987;28;20021;-50
2022/03/24 06:25:14;;;;;;;15.45;6.43;;;;;;;14.79;29.86;100318.13;5030054;28;20017;-48
2022/03/24 06:27:40;;;;;;;14.57;5.53;;;;;;;14.87;28.98;100320.56;5031410;28;20025;-48
2022/03/24 06:30:06;;;;;;;12.30;5.82;;;;;;;15.25;28.49;100317.78;5031413;28;20034;-48
2022/03/24 06:32:32;;;;;;;14.00;5.95;;;;;;;15.78;28.02;100312.94;5031979;28;20022;-47
2022/03/24 06:34:58;;;;;;;15.48;5.53;;;;;;;15.79;27.63;100309.22;5031526;28;20088;-49
2022/03/24 06:37:23;;;;;;;13.98;6.30;;;;;;;15.71;28.98;100299.56;5030456;28;20594;-50
2022/03/24 06:39:49;;;;;;;14.20;5.93;;;;;;;15.76;27.93;100294.38;5029901;28;20061;-51
2022/03/24 06:42:14;;;;;;;14.65;5.75;;;;;;;16.16;26.48;100296.59;5030211;28;20025;-51
2022/03/24 06:44:40;;;;;;;17.23;5.65;;;;;;;16.55;25.77;100301.63;5031306;28;20033;-49
2022/03/24 06:47:05;;;;;;;19.35;5.68;;;;;;;16.52;26.43;100300.19;5050063;28;20523;-52
2022/03/24 06:49:31;;;;;;;15.70;5.93;;;;;;;16.79;26.50;100307.84;5049676;28;20025;-49
2022/03/24 06:51:56;;;;;;;13.75;5.68;;;;;;;16.98;25.52;100300.56;5050541;28;20459;-51
2022/03/24 06:54:22;;;;;;;16.23;6.03;;;;;;;17.29;24.92;100315.56;5050393;28;20036;-52
2022/03/24 06:56:49;;;;;;;16.85;5.90;;;;;;;17.66;25.11;100314.47;5049613;28;20067;-52
2022/03/24 06:59:14;;;;;;;11.73;5.55;;;;;;;17.80;25.27;100318.56;5050604;28;20033;-50
2022/03/24 07:01:40;;;;;;;13.23;5.75;;;;;;;18.18;24.32;100303.69;5050498;28;20102;-51
2022/03/24 07:04:05;;;;;;;15.27;6.22;;;;;;;19.01;23.45;100306.81;5050142;28;20461;-49
2022/03/24 07:06:31;;;;;;;12.73;7.28;;;;;;;19.87;22.73;100306.41;5050326;28;20053;-49
2022/03/24 07:08:56;;;;;;;14.63;6.13;;;;;;;19.72;22.45;100317.03;5050755;28;20456;-50
2022/03/24 07:11:22;;;;;;;16.80;6.75;;;;;;;20.06;22.47;100306.91;5050942;28;20029;-52
2022/03/24 07:13:47;;;;;;;16.90;6.90;;;;;;;20.56;22.04;100307.72;5049649;28;20033;-50
2022/03/24 07:16:13;;;;;;;16.40;6.60;;;;;;;21.04;21.69;100316.81;5049265;28;20025;-51
2022/03/24 07:18:38;;;;;;;13.35;6.78;;;;;;;21.02;21.22;100307.34;5049225;28;20025;-52
2022/03/24 07:21:04;;;;;;;12.35;5.45;;;;;;;21.69;21.24;100311.28;5049094;28;20025;-50
2022/03/24 07:23:30;;;;;;;17.67;6.07;;;;;;;21.25;21.00;100301.53;5049092;28;20039;-49
2022/03/24 07:25:55;;;;;;;15.38;5.80;;;;;;;21.03;21.30;100301.63;5049405;28;20115;-51
2022/03/24 07:28:21;;;;;;;12.93;5.85;;;;;;;20.92;21.59;100296.41;5049612;28;20029;-50
2022/03/24 07:30:50;;;;;;;12.98;5.82;;;;;;;21.00;21.68;100301.34;5049325;28;20020;-48
2022/03/24 07:33:16;;;;;;;;;;;;;;;20.89;21.75;100308.59;5050030;28;20033;-51
2022/03/24 07:35:41;;;;;;;12.70;5.93;;;;;;;20.49;21.57;100305.22;5049074;28;19974;-52
2022/03/24 07:38:07;;;;;;;14.63;6.13;;;;;;;20.37;21.77;100303.72;5048830;28;20021;-53
2022/03/24 07:40:33;;;;;;;11.00;5.25;;;;;;;20.62;21.37;100304.03;5048903;28;20090;-52
2022/03/24 07:42:58;;;;;;;12.18;6.35;;;;;;;20.60;21.79;100300.75;5048612;28;20473;-52
2022/03/24 07:45:25;;;;;;;15.02;6.63;;;;;;;21.46;21.05;100296.28;5048930;28;20464;-51
2022/03/24 07:48:08;;;;;;;10.63;5.47;;;;;;;22.09;20.57;100311.72;5049297;28;20033;-52
2022/03/24 07:50:38;;;;;;;18.05;6.00;;;;;;;21.84;20.33;100305.13;5049637;28;20063;-52
2022/03/24 07:53:13;;;;;;;19.92;5.75;;;;;;;21.60;20.45;100299.31;5048836;28;20021;-50
2022/03/24 07:55:41;;;;;;;11.50;5.97;;;;;;;22.06;20.20;100299.50;5049008;28;20021;-53
2022/03/24 07:58:17;;;;;;;14.23;5.72;;;;;;;21.38;20.79;100299.44;5048941;28;20078;-48
2022/03/24 08:00:43;;;;;;;14.55;5.72;;;;;;;21.35;21.42;100295.38;5049707;28;20048;-53
2022/03/24 08:03:10;;;;;;;14.20;5.82;;;;;;;22.18;20.15;100297.38;5049462;28;20020;-50
2022/03/24 08:05:36;;;;;;;16.08;6.05;;;;;;;21.36;20.77;100286.19;5048347;28;20106;-51
2022/03/24 08:08:04;;;;;;;10.93;5.90;;;;;;;21.36;20.73;100288.88;5048796;28;20037;-52
2022/03/24 08:10:29;;;;;;;13.02;5.53;;;;;;;21.70;20.92;100295.84;5049050;28;20053;-50
2022/03/24 08:12:55;;;;;;;12.95;5.80;;;;;;;22.02;20.22;100290.28;5048657;28;20476;-52
2022/03/24 08:15:20;;;;;;;10.27;5.30;;;;;;;22.69;19.89;100287.72;5048610;28;20021;-50
2022/03/24 08:17:46;;;;;;;12.70;5.32;;;;;;;23.29;19.22;100279.84;5048358;28;20059;-52
2022/03/24 08:20:12;;;;;;;11.70;5.38;;;;;;;23.25;19.21;100278.72;5048382;28;20481;-50
2022/03/24 08:22:38;;;;;;;12.68;5.20;;;;;;;23.30;19.15;100282.25;5048350;28;20017;-49
2022/03/24 08:25:08;;;;;;;10.13;5.50;;;;;;;23.53;19.33;100278.13;5048325;28;20463;-52
2022/03/24 08:27:34;;;;;;;12.07;5.53;;;;;;;22.18;20.54;100270.28;5048806;28;20021;-50
2022/03/24 08:30:00;;;;;;;9.70;5.57;;;;;;;21.49;20.72;100260.53;5048717;28;20024;-51
2022/03/24 08:32:25;;;;;;;81.75;45.97;;;;;;;21.41;21.43;100258.31;5047934;28;20060;-50
2022/03/24 08:34:51;;;;;;;17.15;6.38;;;;;;;22.24;20.74;100260.28;5048161;28;20025;-49
2022/03/24 08:37:16;;;;;;;15.60;6.00;;;;;;;22.44;20.31;100260.31;5048470;28;20017;-51
2022/03/24 08:39:42;;;;;;;12.13;5.70;;;;;;;22.65;19.81;100254.91;5048268;28;20430;-50
2022/03/24 08:42:07;;;;;;;10.23;5.68;;;;;;;23.31;19.72;100254.03;5048075;28;20044;-50
2022/03/24 08:44:32;;;;;;;9.13;5.25;;;;;;;22.62;19.53;100250.84;5048319;28;20104;-50
2022/03/24 08:46:58;;;;;;;9.68;5.38;;;;;;;23.19;19.47;100248.09;5048277;28;20332;-50
2022/03/24 08:49:24;;;;;;;9.88;5.57;;;;;;;23.05;19.69;100249.75;5052410;28;20025;-50
2022/03/24 08:51:49;;;;;;;12.20;6.13;;;;;;;23.16;19.03;100248.63;5052442;28;20025;-49
2022/03/24 08:54:15;;;;;;;13.25;6.03;;;;;;;23.48;19.01;100255.63;5052461;28;20029;-49
2022/03/24 08:56:40;;;;;;;13.30;5.47;;;;;;;23.67;18.98;100248.47;5052376;28;20075;-51
2022/03/24 08:59:06;;;;;;;11.50;6.25;;;;;;;23.15;19.15;100242.41;5051756;28;20039;-51
2022/03/24 09:01:31;;;;;;;16.95;5.72;;;;;;;22.79;19.46;100237.00;5052049;28;20079;-51
2022/03/24 09:03:57;;;;;;;10.63;5.78;;;;;;;23.36;18.96;100243.16;5051998;28;20021;-49
2022/03/24 09:06:22;;;;;;;8.27;5.70;;;;;;;23.60;18.64;100242.50;5051512;28;20524;-48
2022/03/24 09:08:48;;;;;;;13.55;6.28;;;;;;;23.41;19.00;100240.41;5052274;28;20523;-49
2022/03/24 09:11:14;;;;;;;15.05;6.15;;;;;;;23.69;18.54;100230.00;5052431;28;20048;-51
2022/03/24 09:13:39;;;;;;;11.73;5.93;;;;;;;24.21;18.53;100233.25;5052075;28;20114;-51
2022/03/24 09:16:06;;;;;;;14.60;6.22;;;;;;;24.08;18.37;100220.28;5052038;28;20025;-50
2022/03/24 09:18:33;;;;;;;11.80;6.10;;;;;;;23.81;16.90;100214.19;5052023;28;20549;-49
2022/03/24 09:20:58;;;;;;;9.20;6.60;;;;;;;24.38;15.97;100216.53;5051750;28;20020;-50
2022/03/24 09:23:26;;;;;;;12.73;6.78;;;;;;;24.84;15.95;100212.63;5051837;28;20469;-47
2022/03/24 09:25:53;;;;;;;14.40;6.32;;;;;;;24.97;15.87;100209.22;5052125;28;20033;-49
2022/03/24 09:28:19;;;;;;;11.98;6.10;;;;;;;25.10;16.18;100203.09;5052008;28;20471;-49
2022/03/24 09:30:45;;;;;;;12.95;6.65;;;;;;;24.75;16.04;100202.38;5052426;28;20020;-51
2022/03/24 09:33:11;;;;;;;9.82;6.30;;;;;;;24.14;16.29;100200.94;5051970;28;20088;-49
2022/03/24 09:35:36;;;;;;;10.00;6.25;;;;;;;23.46;16.84;100201.56;5051564;28;20028;-50
2022/03/24 09:38:02;;;;;;;11.75;6.80;;;;;;;23.33;16.73;100202.97;5051704;28;20049;-47
2022/03/24 09:40:28;;;;;;;11.50;6.60;;;;;;;24.50;16.02;100192.53;5051466;28;20021;-49
2022/03/24 09:42:56;;;;;;;20.75;6.93;;;;;;;24.66;16.19;100192.41;5051581;28;20075;-50
2022/03/24 09:45:22;;;;;;;14.00;6.55;;;;;;;24.23;16.29;100192.19;5050939;28;20024;-52
2022/03/24 09:47:48;;;;;;;11.75;6.40;;;;;;;24.65;15.91;100182.59;5052007;28;20106;-49
2022/03/24 09:50:14;;;;;;;13.10;6.47;;;;;;;24.25;15.97;100179.13;5051668;28;20029;-50
2022/03/24 09:52:40;;;;;;;10.52;6.40;;;;;;;24.69;16.15;100180.94;5052117;28;20044;-48
2022/03/24 09:55:08;;;;;;;10.60;6.65;;;;;;;24.77;15.83;100174.88;5050992;28;20029;-50
2022/03/24 09:57:34;;;;;;;14.82;6.68;;;;;;;23.86;16.39;100171.78;5051252;28;20032;-52
2022/03/24 10:00:00;;;;;;;12.52;6.70;;;;;;;24.49;16.14;100168.31;5051127;28;20028;-51
2022/03/24 10:02:28;;;;;;;13.05;6.78;;;;;;;24.48;15.59;100163.97;5051397;28;20099;-49
2022/03/24 10:04:57;;;;;;;9.70;6.60;;;;;;;24.44;15.74;100160.19;5051014;28;20115;-52
2022/03/24 10:07:29;;;;;;;13.23;6.97;;;;;;;24.64;15.88;100170.91;5051534;28;20037;-51
2022/03/24 10:09:56;;;;;;;9.68;6.57;;;;;;;24.62;15.65;100164.13;5051454;28;20025;-51
2022/03/24 10:12:21;;;;;;;8.05;6.30;;;;;;;24.85;15.58;100159.84;5051518;28;20112;-50
2022/03/24 10:15:05;;;;;;;10.50;6.45;;;;;;;24.61;15.80;100152.44;5050989;28;20414;-50
2022/03/24 10:17:32;;;;;;;9.52;6.45;;;;;;;24.89;15.40;100150.00;5050699;28;20028;-49
2022/03/24 10:20:06;;;;;;;10.45;6.45;;;;;;;25.28;15.54;100138.91;5050952;28;20087;-52
2022/03/24 10:22:35;;;;;;;12.48;6.70;;;;;;;26.40;14.50;100141.09;5050654;28;20036;-50
2022/03/24 10:25:05;;;;;;;11.38;6.50;;;;;;;27.08;14.11;100144.22;5050418;28;20029;-51
2022/03/24 10:27:31;;;;;;;16.17;6.88;;;;;;;25.77;14.77;100141.53;5050718;28;20093;-51
2022/03/24 10:29:58;;;;;;;13.40;6.97;;;;;;;24.93;15.45;100149.09;5050495;28;20454;-50
2022/03/24 10:32:32;;;;;;;13.60;7.30;;;;;;;24.49;15.77;100143.84;5050856;28;20029;-52
2022/03/24 10:35:08;;;;;;;12.98;6.70;;;;;;;25.17;15.18;100132.78;5050578;28;20032;-51
2022/03/24 10:37:34;;;;;;;11.88;6.93;;;;;;;25.18;14.85;100123.47;5050215;28;20082;-51
2022/03/24 10:40:10;;;;;;;10.25;6.75;;;;;;;25.53;14.93;100115.16;5050275;28;20033;-51
2022/03/24 10:42:38;;;;;;;11.27;6.75;;;;;;;26.28;14.27;100111.56;5050021;28;20041;-52
2022/03/24 10:45:20;;;;;;;11.27;6.88;;;;;;;25.76;14.49;100118.94;5049560;28;20049;-50
2022/03/24 10:47:55;;;;;;;13.30;7.32;;;;;;;24.89;15.50;100109.97;5050305;28;20112;-51
2022/03/24 10:50:32;;;;;;;17.27;7.07;;;;;;;24.45;15.34;100113.69;5050716;28;20029;-49
2022/03/24 10:53:08;;;;;;;12.98;7.05;;;;;;;25.15;15.50;100101.47;5050192;28;20044;-49
2022/03/24 10:55:51;;;;;;;12.23;6.40;;;;;;;25.39;15.17;100100.66;5050303;28;20031;-51
2022/03/24 10:58:19;;;;;;;10.18;6.60;;;;;;;24.77;15.40;100087.81;5050071;28;20051;-51
2022/03/24 11:00:47;;;;;;;14.45;7.05;;;;;;;24.75;15.36;100092.69;5050152;28;20028;-51
2022/03/24 11:03:15;;;;;;;15.43;7.07;;;;;;;25.82;14.72;100087.75;5050035;28;20033;-50
2022/03/24 11:05:41;;;;;;;13.13;6.80;;;;;;;24.87;14.84;100086.88;5048882;28;20075;-49
2022/03/24 11:08:09;;;;;;;11.63;6.18;;;;;;;25.01;14.45;100085.06;5050099;28;20051;-51
2022/03/24 11:10:47;;;;;;;12.77;6.80;;;;;;;25.05;15.34;100088.00;5049866;28;20033;-50
2022/03/24 11:13:22;;;;;;;13.68;6.57;;;;;;;25.31;14.65;100059.34;5049365;28;20040;-50
2022/03/24 11:15:49;;;;;;;11.73;6.25;;;;;;;25.75;14.40;100057.34;5049149;28;20029;-52
2022/03/24 11:18:16;;;;;;;12.73;6.88;;;;;;;25.61;14.28;100051.00;5049107;28;20028;-49